Ubc Canada — 5BYX2 — position and weather

sailwx.info

Track history (hours):
 
Tides and Currents Weather Stations Pressure Air Temp Water Temp Dewpoint Dewpoint Depression Visibility Wind Speed Wind Dir Waves Ship Positions

Ubc Canada

Last reported at 2018-Jan-21 22:30 UTC. Time now 2018-Jan-21 22:40 UTC.
Position S 33°20' E 151°52'.

Length 132 m; draft 8.2 m.

Type: Cargo ship. MMSI: 212297000.

Date/timePositionNaut miles runAvg speedWind from/ knotsBaromVisibWave heightAir tempDewpointWater temp
2018-Jan-21 22:30S 33°20' E 151°52'611.3
2018-Jan-21 22:00S 33°16' E 151°56'611.5
2018-Jan-21 21:30S 33°12' E 152°01'611.5
2018-Jan-21 21:00S 33°07' E 152°05'611.6
2018-Jan-21 20:30S 33°03' E 152°09'611.6
2018-Jan-21 20:00S 32°58' E 152°14'611.3
2018-Jan-21 19:30S 32°54' E 152°18'611.4
2018-Jan-21 19:00S 32°50' E 152°23'611.3
2018-Jan-21 18:30S 32°46' E 152°27'611.6
2018-Jan-21 17:59S 32°41' E 152°32'611.7
2018-Jan-21 17:30S 32°37' E 152°36'611.7
2018-Jan-21 16:59S 32°31' E 152°40'611.6
2018-Jan-21 16:30S 32°26' E 152°43'811.6
2018-Jan-21 15:51S 32°20' E 152°47'1711.8
2018-Jan-21 14:24S 32°04' E 152°54'811.8
2018-Jan-21 13:45S 31°56' E 152°57'312.1
2018-Jan-21 13:30S 31°53' E 152°58'1012.3
2018-Jan-21 12:43S 31°44' E 153°01'312.6
2018-Jan-21 12:30S 31°42' E 153°01'19711.5
2018-Jan-20 19:20S 28°28' E 153°45'412.5
2018-Jan-20 19:00S 28°24' E 153°45'712.4
2018-Jan-20 18:27S 28°17' E 153°44'612.4
2018-Jan-20 18:00S 28°12' E 153°44'612.1
2018-Jan-20 17:30S 28°06' E 153°43'611.8
2018-Jan-20 17:00S 27°60' E 153°43'611.8
2018-Jan-20 16:29S 27°54' E 153°42'611.8
2018-Jan-20 15:56S 27°47' E 153°42'512.0
2018-Jan-20 15:30S 27°42' E 153°41'912.0
2018-Jan-20 14:47S 27°33' E 153°41'512.0
2018-Jan-20 14:22S 27°28' E 153°40'  
2018-Jan-12 15:00S 32°44' E 152°32'5 9.1
2018-Jan-12 14:30S 32°48' E 152°29'4 8.9
2018-Jan-12 14:00S 32°51' E 152°25'4 8.8
2018-Jan-12 13:30S 32°54' E 152°22'5 9.0
2018-Jan-12 13:00S 32°58' E 152°18'5 9.4
2018-Jan-12 12:30S 33°01' E 152°15'5 9.6
2018-Jan-12 12:00S 33°05' E 152°11'5 9.4
2018-Jan-12 11:30S 33°08' E 152°07'5 9.4
2018-Jan-12 10:58S 33°12' E 152°03'4 9.6
2018-Jan-12 10:30S 33°15' E 151°60'5 9.6
2018-Jan-12 10:00S 33°19' E 151°56'5 9.5
2018-Jan-12 09:30S 33°23' E 151°52'5 9.4
2018-Jan-12 09:00S 33°26' E 151°48'5 9.7
2018-Jan-12 08:30S 33°30' E 151°44'5 9.7
2018-Jan-12 08:00S 33°33' E 151°41'5 9.7
2018-Jan-12 07:30S 33°37' E 151°37'1210.0
2018-Jan-12 06:19S 33°46' E 151°27'310.2
2018-Jan-12 06:00S 33°48' E 151°25'  
Track history (hours):
 
Tides and Currents Weather Stations Pressure Air Temp Water Temp Dewpoint Dewpoint Depression Visibility Wind Speed Wind Dir Waves Ship Positions

Ubc Canada

Last reported at 2018-Jan-21 22:30 UTC. Time now 2018-Jan-21 22:40 UTC.
Position S 33°20' E 151°52'.

Length 132 m; draft 8.2 m.

Type: Cargo ship. MMSI: 212297000.

Date/timePositionNaut miles runAvg speedWind from/ knotsBaromVisibWave heightAir tempDewpointWater temp
2018-Jan-21 22:30S 33°20' E 151°52'611.3
2018-Jan-21 22:00S 33°16' E 151°56'611.5
2018-Jan-21 21:30S 33°12' E 152°01'611.5
2018-Jan-21 21:00S 33°07' E 152°05'611.6
2018-Jan-21 20:30S 33°03' E 152°09'611.6
2018-Jan-21 20:00S 32°58' E 152°14'611.3
2018-Jan-21 19:30S 32°54' E 152°18'611.4
2018-Jan-21 19:00S 32°50' E 152°23'611.3
2018-Jan-21 18:30S 32°46' E 152°27'611.6
2018-Jan-21 17:59S 32°41' E 152°32'611.7
2018-Jan-21 17:30S 32°37' E 152°36'611.7
2018-Jan-21 16:59S 32°31' E 152°40'611.6
2018-Jan-21 16:30S 32°26' E 152°43'811.6
2018-Jan-21 15:51S 32°20' E 152°47'1711.8
2018-Jan-21 14:24S 32°04' E 152°54'811.8
2018-Jan-21 13:45S 31°56' E 152°57'312.1
2018-Jan-21 13:30S 31°53' E 152°58'1012.3
2018-Jan-21 12:43S 31°44' E 153°01'312.6
2018-Jan-21 12:30S 31°42' E 153°01'19711.5
2018-Jan-20 19:20S 28°28' E 153°45'412.5
2018-Jan-20 19:00S 28°24' E 153°45'712.4
2018-Jan-20 18:27S 28°17' E 153°44'612.4
2018-Jan-20 18:00S 28°12' E 153°44'612.1
2018-Jan-20 17:30S 28°06' E 153°43'611.8
2018-Jan-20 17:00S 27°60' E 153°43'611.8
2018-Jan-20 16:29S 27°54' E 153°42'611.8
2018-Jan-20 15:56S 27°47' E 153°42'512.0
2018-Jan-20 15:30S 27°42' E 153°41'912.0
2018-Jan-20 14:47S 27°33' E 153°41'512.0
2018-Jan-20 14:22S 27°28' E 153°40'  
2018-Jan-12 15:00S 32°44' E 152°32'5 9.1
2018-Jan-12 14:30S 32°48' E 152°29'4 8.9
2018-Jan-12 14:00S 32°51' E 152°25'4 8.8
2018-Jan-12 13:30S 32°54' E 152°22'5 9.0
2018-Jan-12 13:00S 32°58' E 152°18'5 9.4
2018-Jan-12 12:30S 33°01' E 152°15'5 9.6
2018-Jan-12 12:00S 33°05' E 152°11'5 9.4
2018-Jan-12 11:30S 33°08' E 152°07'5 9.4
2018-Jan-12 10:58S 33°12' E 152°03'4 9.6
2018-Jan-12 10:30S 33°15' E 151°60'5 9.6
2018-Jan-12 10:00S 33°19' E 151°56'5 9.5
2018-Jan-12 09:30S 33°23' E 151°52'5 9.4
2018-Jan-12 09:00S 33°26' E 151°48'5 9.7
2018-Jan-12 08:30S 33°30' E 151°44'5 9.7
2018-Jan-12 08:00S 33°33' E 151°41'5 9.7
2018-Jan-12 07:30S 33°37' E 151°37'1210.0
2018-Jan-12 06:19S 33°46' E 151°27'310.2
2018-Jan-12 06:00S 33°48' E 151°25'  

Dump ship's entire track history